createdAt,value
2023-02-26T00:00:15.409Z,29.70
2023-02-26T00:02:46.795Z,30.30
2023-02-26T00:05:16.622Z,31.30
2023-02-26T00:07:51.233Z,31.50
2023-02-26T00:10:20.328Z,28.40
2023-02-26T00:12:49.626Z,30.00
2023-02-26T00:15:22.267Z,33.90
2023-02-26T00:17:57.927Z,41.40
2023-02-26T00:20:32.069Z,28.70
2023-02-26T00:23:01.468Z,26.80
2023-02-26T00:25:43.101Z,33.70
2023-02-26T00:28:23.910Z,35.90
2023-02-26T00:30:53.854Z,39.50
2023-02-26T00:33:29.906Z,28.30
2023-02-26T00:36:25.391Z,34.20
2023-02-26T00:39:02.113Z,30.60
2023-02-26T00:41:36.472Z,42.70
2023-02-26T00:44:06.117Z,29.20
2023-02-26T00:46:56.847Z,32.80
2023-02-26T00:52:15.570Z,34.00
2023-02-26T00:54:54.242Z,34.60
2023-02-26T00:57:26.101Z,24.50
2023-02-26T01:00:14.320Z,32.10
2023-02-26T01:02:46.776Z,31.80
2023-02-26T01:05:19.026Z,28.00
2023-02-26T01:07:54.832Z,29.20
2023-02-26T01:10:26.364Z,30.80
2023-02-26T01:12:57.296Z,33.60
2023-02-26T01:15:26.466Z,36.20
2023-02-26T01:18:01.127Z,25.90
2023-02-26T01:20:38.913Z,26.80
2023-02-26T01:23:16.312Z,31.00
2023-02-26T01:25:55.252Z,35.60
2023-02-26T01:28:24.748Z,27.20
2023-02-26T01:30:55.184Z,30.90
2023-02-26T01:36:08.724Z,33.70
2023-02-26T01:38:42.939Z,33.50
2023-02-26T01:41:17.560Z,25.90
2023-02-26T01:44:10.717Z,28.10
2023-02-26T01:46:39.659Z,32.50
2023-02-26T01:49:21.620Z,31.90
2023-02-26T01:52:19.614Z,27.70
2023-02-26T01:54:53.802Z,32.40
2023-02-26T01:57:23.105Z,27.00
2023-02-26T01:59:55.681Z,30.80
2023-02-26T02:02:26.568Z,29.30
2023-02-26T02:04:55.525Z,28.20
2023-02-26T02:07:25.468Z,26.40
2023-02-26T02:09:54.845Z,32.30
2023-02-26T02:12:29.038Z,28.80
2023-02-26T02:15:09.399Z,24.00
2023-02-26T02:17:51.953Z,27.30
2023-02-26T02:20:28.010Z,27.60
2023-02-26T02:23:09.543Z,28.80
2023-02-26T02:25:50.519Z,24.30
2023-02-26T02:28:35.350Z,29.90
2023-02-26T02:31:07.844Z,26.30
2023-02-26T02:33:56.282Z,34.80
2023-02-26T02:36:29.608Z,28.80
2023-02-26T02:39:02.589Z,28.10
2023-02-26T02:41:57.792Z,23.90
2023-02-26T02:44:26.890Z,27.90
2023-02-26T02:49:57.233Z,24.50
2023-02-26T02:52:44.964Z,28.30
2023-02-26T02:55:21.379Z,26.70
2023-02-26T02:58:01.170Z,23.80
2023-02-26T03:00:32.128Z,25.90
2023-02-26T03:03:20.362Z,26.90
2023-02-26T03:05:51.005Z,32.90
2023-02-26T03:08:25.204Z,24.50
2023-02-26T03:10:58.514Z,24.80
2023-02-26T03:13:30.974Z,23.90
2023-02-26T03:16:51.009Z,25.50
2023-02-26T03:19:26.716Z,34.00
2023-02-26T03:22:11.179Z,32.40
2023-02-26T03:25:15.806Z,31.90
2023-02-26T03:27:54.010Z,34.10
2023-02-26T03:30:34.780Z,39.40
2023-02-26T03:33:18.627Z,39.20
2023-02-26T03:36:11.684Z,60.10
2023-02-26T03:38:57.872Z,57.00
2023-02-26T03:41:37.003Z,55.80
2023-02-26T03:44:13.482Z,34.10
2023-02-26T03:46:49.004Z,34.20
2023-02-26T03:49:37.059Z,33.60
2023-02-26T03:52:08.625Z,31.70
2023-02-26T03:55:25.775Z,35.20
2023-02-26T03:58:03.537Z,21.60
2023-02-26T04:01:00.196Z,26.40
2023-02-26T04:03:48.517Z,25.50
2023-02-26T04:06:17.206Z,34.20
2023-02-26T04:08:46.506Z,25.90
2023-02-26T04:11:20.315Z,29.40
2023-02-26T04:13:50.949Z,30.80
2023-02-26T04:16:20.636Z,28.90
2023-02-26T04:18:50.284Z,32.30
2023-02-26T04:21:20.693Z,26.00
2023-02-26T04:23:49.588Z,27.60
2023-02-26T04:26:18.505Z,33.80
2023-02-26T04:28:47.661Z,32.90
2023-02-26T04:31:16.501Z,37.40
2023-02-26T04:33:45.750Z,31.80
2023-02-26T04:36:18.222Z,31.00
2023-02-26T04:38:47.635Z,36.40
2023-02-26T04:41:16.614Z,38.70
2023-02-26T04:43:46.739Z,37.20
2023-02-26T04:46:25.588Z,31.80
2023-02-26T04:48:54.555Z,30.50
2023-02-26T04:51:26.207Z,31.80
2023-02-26T04:53:54.893Z,36.90
2023-02-26T04:56:24.028Z,43.20
2023-02-26T04:58:53.597Z,35.20
2023-02-26T05:01:26.227Z,37.20
2023-02-26T05:03:58.239Z,41.30
2023-02-26T05:06:27.069Z,38.20
2023-02-26T05:08:57.176Z,38.80
2023-02-26T05:11:26.035Z,35.70
2023-02-26T05:13:54.826Z,39.40
2023-02-26T05:16:24.903Z,38.90
2023-02-26T05:21:26.075Z,45.80
2023-02-26T05:23:55.504Z,40.50
2023-02-26T05:26:27.186Z,31.60
2023-02-26T05:28:56.973Z,37.60
2023-02-26T05:31:27.149Z,45.30
2023-02-26T05:33:56.803Z,41.80
2023-02-26T05:36:27.014Z,33.10
2023-02-26T05:38:56.124Z,31.60
2023-02-26T05:41:25.266Z,37.70
2023-02-26T05:43:53.915Z,38.50
2023-02-26T05:46:23.132Z,42.30
2023-02-26T05:48:51.987Z,34.60
2023-02-26T05:51:21.627Z,37.50
2023-02-26T05:53:50.386Z,36.70
2023-02-26T05:56:19.274Z,35.90
2023-02-26T05:58:48.517Z,46.30
2023-02-26T06:01:17.985Z,37.90
2023-02-26T06:03:47.068Z,39.10
2023-02-26T06:06:20.038Z,36.00
2023-02-26T06:08:52.023Z,35.80
2023-02-26T06:11:20.910Z,40.80
2023-02-26T06:13:50.201Z,32.50
2023-02-26T06:16:20.785Z,34.60
2023-02-26T06:18:53.423Z,37.70
2023-02-26T06:21:22.000Z,33.90
2023-02-26T06:23:50.889Z,34.00
2023-02-26T06:26:20.611Z,28.30
2023-02-26T06:28:51.237Z,28.00
2023-02-26T06:31:24.675Z,29.80
2023-02-26T06:33:54.029Z,33.30
2023-02-26T06:36:22.776Z,34.00
2023-02-26T06:38:51.919Z,29.40
2023-02-26T06:41:23.254Z,29.70
2023-02-26T06:43:52.576Z,32.10
2023-02-26T06:46:21.472Z,38.40
2023-02-26T06:48:52.696Z,34.40
2023-02-26T06:51:21.691Z,27.40
2023-02-26T06:53:50.786Z,29.40
2023-02-26T06:56:20.085Z,32.20
2023-02-26T06:58:49.605Z,33.10
2023-02-26T07:01:23.050Z,28.50
2023-02-26T07:03:51.888Z,27.70
2023-02-26T07:06:27.827Z,28.50
2023-02-26T07:08:57.202Z,22.40
2023-02-26T07:11:28.569Z,29.10
2023-02-26T07:13:57.589Z,24.50
2023-02-26T07:16:26.884Z,28.20
2023-02-26T07:18:57.625Z,21.50
2023-02-26T07:21:27.129Z,23.60
2023-02-26T07:24:01.634Z,26.00
2023-02-26T07:26:31.211Z,28.00
2023-02-26T07:29:00.115Z,24.90
2023-02-26T07:31:29.217Z,20.80
2023-02-26T07:33:59.182Z,24.60
2023-02-26T07:36:30.494Z,22.00
2023-02-26T07:39:00.638Z,24.70
2023-02-26T07:41:31.875Z,20.80
2023-02-26T07:44:02.082Z,23.40
2023-02-26T07:46:31.109Z,23.80
2023-02-26T07:51:32.403Z,27.90
2023-02-26T07:54:02.968Z,22.00
2023-02-26T07:56:32.878Z,21.70
2023-02-26T07:59:02.093Z,29.30
2023-02-26T08:01:31.646Z,26.80
2023-02-26T08:04:01.456Z,28.90
2023-02-26T08:06:30.795Z,61.70
2023-02-26T08:09:02.265Z,34.50
2023-02-26T08:11:36.968Z,31.80
2023-02-26T08:15:02.415Z,48.10
2023-02-26T08:17:38.747Z,45.00
2023-02-26T08:20:09.120Z,42.10
2023-02-26T08:25:07.832Z,45.40
2023-02-26T08:27:36.476Z,40.60
2023-02-26T08:30:07.833Z,44.70
2023-02-26T08:32:42.779Z,41.80
2023-02-26T08:35:13.903Z,28.00
2023-02-26T08:37:45.338Z,35.90
2023-02-26T08:40:15.332Z,35.10
2023-02-26T08:42:44.196Z,32.40
2023-02-26T08:45:13.273Z,27.90
2023-02-26T08:47:55.708Z,29.40
2023-02-26T08:50:26.709Z,31.50
2023-02-26T08:52:55.799Z,34.20
2023-02-26T08:55:31.869Z,33.10
2023-02-26T08:58:01.859Z,26.30
2023-02-26T09:00:31.308Z,29.90
2023-02-26T09:03:00.742Z,29.90
2023-02-26T09:05:31.704Z,34.20
2023-02-26T09:08:05.308Z,31.70
2023-02-26T09:10:34.909Z,28.00
2023-02-26T09:13:03.573Z,26.20
2023-02-26T09:15:32.591Z,30.40
2023-02-26T09:18:01.996Z,30.40
2023-02-26T09:20:30.986Z,25.60
2023-02-26T09:22:59.775Z,24.80
2023-02-26T09:25:28.766Z,21.70
2023-02-26T09:27:58.843Z,19.40
2023-02-26T09:30:28.394Z,23.70
2023-02-26T09:32:57.589Z,19.20
2023-02-26T09:35:26.478Z,18.50
2023-02-26T09:37:55.474Z,22.30
2023-02-26T09:40:51.196Z,24.80
2023-02-26T09:43:42.201Z,22.50
2023-02-26T09:46:34.414Z,21.40
2023-02-26T09:49:22.266Z,23.40
2023-02-26T09:52:19.644Z,27.40
2023-02-26T09:54:52.036Z,26.60
2023-02-26T09:57:37.377Z,25.90
2023-02-26T10:00:38.440Z,24.60
2023-02-26T10:03:12.025Z,24.30
2023-02-26T10:06:10.125Z,23.60
2023-02-26T10:09:01.020Z,29.60
2023-02-26T10:11:44.954Z,28.20
2023-02-26T10:14:22.964Z,23.10
2023-02-26T10:17:00.082Z,26.50
2023-02-26T10:19:33.124Z,26.40
2023-02-26T10:22:13.897Z,25.50
2023-02-26T10:24:49.510Z,23.30
2023-02-26T10:27:39.638Z,24.20
2023-02-26T10:30:22.468Z,23.20
2023-02-26T10:32:54.224Z,25.00
2023-02-26T10:35:28.214Z,24.50
2023-02-26T10:38:03.137Z,25.60
2023-02-26T10:40:35.312Z,23.10
2023-02-26T10:43:38.822Z,25.10
2023-02-26T10:46:21.433Z,26.50
2023-02-26T10:49:27.914Z,23.80
2023-02-26T10:51:58.640Z,20.60
2023-02-26T10:54:34.479Z,22.10
2023-02-26T10:57:04.497Z,23.90
2023-02-26T10:59:34.316Z,20.30
2023-02-26T11:02:03.515Z,23.60
2023-02-26T11:04:32.261Z,25.40
2023-02-26T11:07:02.739Z,26.70
2023-02-26T11:09:37.250Z,26.40
2023-02-26T11:12:14.034Z,26.30
2023-02-26T11:14:43.527Z,25.70
2023-02-26T11:17:23.789Z,22.70
2023-02-26T11:20:15.670Z,22.70
2023-02-26T11:22:58.368Z,24.10
2023-02-26T11:25:30.102Z,21.60
2023-02-26T11:28:03.506Z,25.10
2023-02-26T11:30:38.828Z,24.70
2023-02-26T11:33:19.703Z,24.50
2023-02-26T11:35:51.434Z,27.10
2023-02-26T11:40:56.622Z,26.70
2023-02-26T11:43:28.791Z,24.80
2023-02-26T11:46:00.714Z,22.60
2023-02-26T11:48:43.246Z,24.30
2023-02-26T11:51:17.040Z,26.60
2023-02-26T11:53:50.764Z,27.00
2023-02-26T11:56:27.235Z,27.40
2023-02-26T11:59:06.347Z,20.70
2023-02-26T12:01:36.889Z,17.10
2023-02-26T12:04:12.741Z,25.30
2023-02-26T12:06:43.668Z,24.90
2023-02-26T12:09:14.601Z,26.90
2023-02-26T12:11:56.820Z,25.00
2023-02-26T12:15:10.763Z,25.60
2023-02-26T12:18:20.336Z,22.10
2023-02-26T12:21:08.274Z,21.70
2023-02-26T12:23:37.973Z,25.90
2023-02-26T12:26:09.808Z,23.10
2023-02-26T12:28:52.833Z,24.90
2023-02-26T12:32:08.026Z,18.10
2023-02-26T12:34:59.541Z,15.10
2023-02-26T12:38:01.289Z,20.80
2023-02-26T12:41:35.519Z,17.30
2023-02-26T12:44:07.602Z,19.20
2023-02-26T12:46:49.939Z,19.00
2023-02-26T12:49:23.700Z,22.90
2023-02-26T12:52:06.653Z,24.60
2023-02-26T12:55:00.113Z,25.70
2023-02-26T12:57:43.098Z,20.90
2023-02-26T13:00:48.054Z,24.50
2023-02-26T13:03:32.605Z,22.70
2023-02-26T13:06:16.452Z,24.10
2023-02-26T13:09:04.909Z,23.50
2023-02-26T13:12:05.520Z,21.70
2023-02-26T13:14:48.349Z,19.00
2023-02-26T13:17:53.011Z,19.80
2023-02-26T13:20:25.651Z,22.70
2023-02-26T13:22:59.049Z,22.90
2023-02-26T13:25:35.420Z,23.40
2023-02-26T13:28:22.597Z,23.30
2023-02-26T13:30:56.095Z,19.40
2023-02-26T13:33:26.839Z,18.50
2023-02-26T13:35:54.343Z,20.10
2023-02-26T13:41:12.247Z,26.70
2023-02-26T13:43:58.379Z,23.60
2023-02-26T13:46:37.100Z,26.00
2023-02-26T13:49:14.165Z,29.40
2023-02-26T13:51:47.825Z,34.10
2023-02-26T13:54:22.104Z,46.70
2023-02-26T13:57:08.715Z,30.70
2023-02-26T14:00:19.069Z,29.40
2023-02-26T14:02:52.654Z,28.20
2023-02-26T14:05:45.262Z,24.20
2023-02-26T14:08:20.970Z,24.60
2023-02-26T14:10:52.382Z,30.80
2023-02-26T14:13:22.843Z,37.90
2023-02-26T14:16:12.828Z,38.10
2023-02-26T14:21:27.297Z,24.20
2023-02-26T14:23:57.832Z,31.50
2023-02-26T14:26:28.607Z,29.70
2023-02-26T14:29:05.924Z,27.00
2023-02-26T14:32:25.507Z,23.90
2023-02-26T14:37:24.866Z,20.80
2023-02-26T14:39:59.148Z,18.00
2023-02-26T14:42:35.799Z,22.40
2023-02-26T14:45:30.220Z,21.90
2023-02-26T14:47:59.362Z,18.20
2023-02-26T14:50:31.730Z,20.60
2023-02-26T14:53:28.749Z,16.00
2023-02-26T14:56:22.738Z,18.70
2023-02-26T14:59:10.663Z,16.10
2023-02-26T15:01:53.260Z,15.20
2023-02-26T15:04:46.936Z,15.40
2023-02-26T15:07:27.466Z,20.00
2023-02-26T15:09:58.545Z,24.60
2023-02-26T15:12:49.671Z,26.10
2023-02-26T15:15:57.056Z,24.20
2023-02-26T15:18:38.616Z,22.20
2023-02-26T15:21:23.682Z,23.70
2023-02-26T15:23:56.881Z,20.60
2023-02-26T15:26:29.773Z,23.40
2023-02-26T15:29:07.841Z,17.80
2023-02-26T15:32:14.924Z,21.30
2023-02-26T15:34:49.317Z,19.40
2023-02-26T15:37:27.252Z,19.80
2023-02-26T15:40:05.246Z,22.10
2023-02-26T15:42:39.780Z,21.40
2023-02-26T15:45:49.513Z,19.80
2023-02-26T15:48:38.208Z,17.70
2023-02-26T15:51:23.391Z,19.00
2023-02-26T15:53:52.105Z,21.10
2023-02-26T15:56:26.298Z,21.40
2023-02-26T15:59:01.244Z,23.20
2023-02-26T16:01:47.363Z,24.30
2023-02-26T16:05:20.867Z,23.30
2023-02-26T16:07:52.264Z,22.10
2023-02-26T16:10:52.903Z,22.50
2023-02-26T16:13:45.673Z,29.50
2023-02-26T16:16:41.324Z,30.60
2023-02-26T16:19:47.879Z,31.40
2023-02-26T16:22:32.529Z,30.90
2023-02-26T16:25:17.461Z,27.30
2023-02-26T16:28:28.688Z,34.30
2023-02-26T16:30:57.871Z,27.60
2023-02-26T16:33:26.252Z,30.10
2023-02-26T16:36:03.300Z,32.30
2023-02-26T16:38:47.866Z,36.70
2023-02-26T16:41:15.520Z,32.90
2023-02-26T16:43:57.567Z,34.90
2023-02-26T16:46:48.936Z,32.80
2023-02-26T16:49:28.931Z,38.80
2023-02-26T16:52:00.743Z,35.70
2023-02-26T16:54:32.107Z,40.50
2023-02-26T16:57:04.769Z,40.50
2023-02-26T16:59:43.076Z,41.50
2023-02-26T17:02:19.226Z,33.30
2023-02-26T17:05:01.290Z,33.70
2023-02-26T17:07:34.004Z,32.40
2023-02-26T17:10:29.537Z,29.70
2023-02-26T17:13:22.085Z,29.70
2023-02-26T17:15:50.972Z,31.00
2023-02-26T17:18:41.455Z,31.70
2023-02-26T17:21:10.969Z,34.20
2023-02-26T17:23:41.765Z,36.50
2023-02-26T17:26:10.033Z,34.60
2023-02-26T17:33:53.198Z,32.60
2023-02-26T17:36:26.240Z,32.60
2023-02-26T17:38:56.502Z,30.10
2023-02-26T17:41:28.200Z,27.40
2023-02-26T17:43:58.014Z,29.60
2023-02-26T17:46:26.339Z,29.60
2023-02-26T17:48:54.150Z,27.20
2023-02-26T17:51:21.512Z,26.10
2023-02-26T17:53:56.300Z,28.70
2023-02-26T17:56:27.032Z,27.50
2023-02-26T17:58:55.601Z,29.90
2023-02-26T18:01:31.675Z,21.50
2023-02-26T18:04:01.075Z,24.30
2023-02-26T18:06:35.051Z,29.40
2023-02-26T18:09:06.745Z,29.10
2023-02-26T18:11:35.388Z,29.30
2023-02-26T18:14:05.111Z,30.10
2023-02-26T18:16:40.892Z,30.00
2023-02-26T18:19:10.778Z,24.70
2023-02-26T18:21:38.255Z,21.40
2023-02-26T18:24:32.364Z,23.40
2023-02-26T18:27:04.321Z,23.70
2023-02-26T18:29:32.759Z,24.80
2023-02-26T18:32:02.873Z,21.50
2023-02-26T18:34:30.887Z,23.90
2023-02-26T18:36:58.284Z,21.40
2023-02-26T18:39:31.580Z,25.10
2023-02-26T18:41:59.616Z,24.90
2023-02-26T18:44:28.525Z,26.60
2023-02-26T18:46:57.598Z,23.90
2023-02-26T18:49:28.804Z,25.90
2023-02-26T18:51:56.134Z,25.60
2023-02-26T18:54:23.737Z,20.00
2023-02-26T18:56:53.405Z,20.90
2023-02-26T18:59:21.584Z,22.40
2023-02-26T19:01:50.710Z,23.20
2023-02-26T19:04:18.529Z,26.10
2023-02-26T19:06:49.507Z,23.30
2023-02-26T19:09:17.582Z,30.20
2023-02-26T19:11:45.461Z,24.80
2023-02-26T19:14:16.186Z,26.10
2023-02-26T19:16:44.528Z,21.80
2023-02-26T19:19:19.273Z,21.60
2023-02-26T19:21:46.828Z,21.90
2023-02-26T19:24:17.498Z,22.80
2023-02-26T19:26:49.068Z,24.40
2023-02-26T19:29:19.410Z,21.90
2023-02-26T19:31:49.148Z,20.10
2023-02-26T19:34:17.112Z,23.60
2023-02-26T19:36:47.695Z,20.90
2023-02-26T19:39:16.246Z,22.40
2023-02-26T19:41:44.653Z,19.20
2023-02-26T19:44:12.464Z,19.70
2023-02-26T19:46:41.704Z,20.70
2023-02-26T19:49:11.374Z,20.20
2023-02-26T19:51:39.608Z,20.90
2023-02-26T19:54:08.183Z,22.20
2023-02-26T19:59:26.031Z,20.20
2023-02-26T20:02:03.210Z,22.90
2023-02-26T20:04:35.519Z,19.80
2023-02-26T20:07:04.082Z,20.80
2023-02-26T20:09:35.089Z,21.10
2023-02-26T20:12:02.684Z,23.80
2023-02-26T20:14:30.578Z,20.10
2023-02-26T20:17:11.740Z,18.70
2023-02-26T20:19:41.354Z,18.90
2023-02-26T20:22:11.571Z,23.30
2023-02-26T20:24:51.411Z,21.90
2023-02-26T20:27:19.440Z,19.50
2023-02-26T20:29:50.593Z,19.20
2023-02-26T20:32:18.703Z,22.70
2023-02-26T20:34:46.958Z,24.00
2023-02-26T20:37:17.527Z,22.90
2023-02-26T20:39:49.290Z,21.30
2023-02-26T20:42:18.275Z,22.10
2023-02-26T20:44:47.882Z,18.90
2023-02-26T20:47:18.351Z,19.20
2023-02-26T20:49:46.544Z,22.50
2023-02-26T20:52:14.172Z,16.40
2023-02-26T20:54:41.608Z,19.40
2023-02-26T20:57:10.596Z,20.30
2023-02-26T20:59:40.010Z,17.10
2023-02-26T21:02:08.772Z,16.30
2023-02-26T21:04:38.713Z,16.50
2023-02-26T21:07:23.980Z,16.40
2023-02-26T21:09:55.636Z,19.50
2023-02-26T21:12:24.369Z,20.50
2023-02-26T21:14:55.465Z,20.30
2023-02-26T21:17:23.936Z,23.60
2023-02-26T21:19:54.484Z,36.40
2023-02-26T21:22:23.159Z,19.90
2023-02-26T21:24:51.399Z,18.40
2023-02-26T21:27:19.330Z,20.90
2023-02-26T21:29:47.805Z,18.90
2023-02-26T21:32:16.191Z,21.10
2023-02-26T21:34:44.299Z,21.30
2023-02-26T21:37:13.746Z,19.60
2023-02-26T21:39:41.599Z,20.70
2023-02-26T21:42:11.319Z,20.50
2023-02-26T21:44:38.979Z,21.30
2023-02-26T21:47:07.662Z,22.20
2023-02-26T21:49:35.767Z,23.20
2023-02-26T21:52:07.494Z,18.90
2023-02-26T21:54:36.270Z,17.40
2023-02-26T21:59:33.848Z,15.90
2023-02-26T22:02:01.843Z,14.70
2023-02-26T22:04:33.880Z,15.30
2023-02-26T22:07:03.219Z,12.60
2023-02-26T22:09:30.740Z,12.20
2023-02-26T22:12:02.096Z,11.60
2023-02-26T22:14:30.360Z,11.20
2023-02-26T22:17:05.500Z,11.60
2023-02-26T22:19:33.267Z,11.70
2023-02-26T22:22:01.362Z,11.50
2023-02-26T22:24:29.032Z,9.80
2023-02-26T22:26:59.014Z,8.30
2023-02-26T22:29:27.290Z,8.50
2023-02-26T22:31:56.321Z,8.20
2023-02-26T22:34:24.096Z,8.20
2023-02-26T22:36:52.232Z,7.70
2023-02-26T22:39:20.452Z,7.50
2023-02-26T22:41:47.961Z,8.70
2023-02-26T22:44:15.721Z,8.80
2023-02-26T22:46:44.308Z,7.30
2023-02-26T22:49:11.682Z,8.50
2023-02-26T22:51:39.951Z,8.00
2023-02-26T22:54:08.006Z,11.60
2023-02-26T22:56:35.905Z,8.50
2023-02-26T22:59:03.438Z,9.30
2023-02-26T23:01:30.996Z,8.70
2023-02-26T23:03:59.168Z,12.40
2023-02-26T23:06:26.739Z,10.30
2023-02-26T23:08:55.820Z,10.00
2023-02-26T23:11:24.641Z,10.00
2023-02-26T23:13:59.277Z,8.90
2023-02-26T23:16:47.068Z,9.50
2023-02-26T23:19:15.240Z,9.50
2023-02-26T23:21:42.903Z,11.10
2023-02-26T23:26:40.934Z,8.60
2023-02-26T23:29:09.278Z,10.90
2023-02-26T23:31:36.967Z,9.30
2023-02-26T23:34:06.585Z,8.40
2023-02-26T23:36:34.300Z,8.90
2023-02-26T23:39:01.860Z,9.40
2023-02-26T23:41:29.311Z,8.30
2023-02-26T23:43:57.498Z,8.60
2023-02-26T23:46:25.915Z,10.10
2023-02-26T23:48:57.172Z,8.00
2023-02-26T23:51:24.912Z,8.50
2023-02-26T23:53:53.046Z,6.90
2023-02-26T23:58:51.131Z,9.00
